sensor_id;sensor_type;location;lat;lon;timestamp;P1;durP1;ratioP1;P2;durP2;ratioP2
38940;SDS011;43236;47.208;7.518;2022-08-19T00:00:02;25.05;;;15.25;;
38940;SDS011;43236;47.208;7.518;2022-08-19T00:02:50;24.33;;;14.43;;
38940;SDS011;43236;47.208;7.518;2022-08-19T00:05:37;24.98;;;15.02;;
38940;SDS011;43236;47.208;7.518;2022-08-19T00:08:25;24.02;;;15.05;;
38940;SDS011;43236;47.208;7.518;2022-08-19T00:11:14;23.00;;;13.50;;
38940;SDS011;43236;47.208;7.518;2022-08-19T00:14:01;22.67;;;13.35;;
38940;SDS011;43236;47.208;7.518;2022-08-19T00:16:49;21.10;;;13.43;;
38940;SDS011;43236;47.208;7.518;2022-08-19T00:19:39;21.17;;;13.98;;
38940;SDS011;43236;47.208;7.518;2022-08-19T00:22:26;24.55;;;14.40;;
38940;SDS011;43236;47.208;7.518;2022-08-19T00:25:14;23.20;;;13.73;;
38940;SDS011;43236;47.208;7.518;2022-08-19T00:28:04;21.42;;;13.95;;
38940;SDS011;43236;47.208;7.518;2022-08-19T00:30:51;23.30;;;14.38;;
38940;SDS011;43236;47.208;7.518;2022-08-19T00:33:38;23.80;;;14.02;;
38940;SDS011;43236;47.208;7.518;2022-08-19T00:36:26;21.30;;;14.05;;
38940;SDS011;43236;47.208;7.518;2022-08-19T00:39:14;23.23;;;14.48;;
38940;SDS011;43236;47.208;7.518;2022-08-19T00:42:02;23.70;;;14.10;;
38940;SDS011;43236;47.208;7.518;2022-08-19T00:44:51;22.67;;;14.32;;
38940;SDS011;43236;47.208;7.518;2022-08-19T00:47:38;20.55;;;13.50;;
38940;SDS011;43236;47.208;7.518;2022-08-19T00:50:25;23.58;;;13.85;;
38940;SDS011;43236;47.208;7.518;2022-08-19T00:53:14;22.38;;;14.38;;
38940;SDS011;43236;47.208;7.518;2022-08-19T00:56:05;25.27;;;14.60;;
38940;SDS011;43236;47.208;7.518;2022-08-19T00:58:53;25.20;;;15.50;;
38940;SDS011;43236;47.208;7.518;2022-08-19T01:01:44;25.30;;;15.95;;
38940;SDS011;43236;47.208;7.518;2022-08-19T01:04:32;23.33;;;15.02;;
38940;SDS011;43236;47.208;7.518;2022-08-19T01:07:20;23.90;;;15.10;;
38940;SDS011;43236;47.208;7.518;2022-08-19T01:10:08;23.13;;;14.32;;
38940;SDS011;43236;47.208;7.518;2022-08-19T01:12:58;24.23;;;14.10;;
38940;SDS011;43236;47.208;7.518;2022-08-19T01:15:48;24.88;;;14.18;;
38940;SDS011;43236;47.208;7.518;2022-08-19T01:18:41;25.42;;;15.10;;
38940;SDS011;43236;47.208;7.518;2022-08-19T01:21:29;25.27;;;14.40;;
38940;SDS011;43236;47.208;7.518;2022-08-19T01:24:22;24.05;;;13.88;;
38940;SDS011;43236;47.208;7.518;2022-08-19T01:27:09;26.67;;;15.07;;
38940;SDS011;43236;47.208;7.518;2022-08-19T01:29:56;24.38;;;15.23;;
38940;SDS011;43236;47.208;7.518;2022-08-19T01:32:43;23.90;;;14.45;;
38940;SDS011;43236;47.208;7.518;2022-08-19T01:35:31;25.83;;;15.18;;
38940;SDS011;43236;47.208;7.518;2022-08-19T01:38:20;24.77;;;15.40;;
38940;SDS011;43236;47.208;7.518;2022-08-19T01:41:10;22.88;;;14.13;;
38940;SDS011;43236;47.208;7.518;2022-08-19T01:43:58;28.25;;;14.10;;
38940;SDS011;43236;47.208;7.518;2022-08-19T01:46:47;24.55;;;15.52;;
38940;SDS011;43236;47.208;7.518;2022-08-19T01:49:34;26.02;;;15.30;;
38940;SDS011;43236;47.208;7.518;2022-08-19T01:52:22;26.58;;;15.07;;
38940;SDS011;43236;47.208;7.518;2022-08-19T01:55:14;25.48;;;14.85;;
38940;SDS011;43236;47.208;7.518;2022-08-19T01:58:06;24.77;;;14.35;;
38940;SDS011;43236;47.208;7.518;2022-08-19T02:00:57;23.83;;;14.63;;
38940;SDS011;43236;47.208;7.518;2022-08-19T02:03:44;24.83;;;14.45;;
38940;SDS011;43236;47.208;7.518;2022-08-19T02:06:32;21.60;;;13.82;;
38940;SDS011;43236;47.208;7.518;2022-08-19T02:09:19;22.75;;;14.00;;
38940;SDS011;43236;47.208;7.518;2022-08-19T02:12:06;22.73;;;13.93;;
38940;SDS011;43236;47.208;7.518;2022-08-19T02:14:55;23.65;;;14.60;;
38940;SDS011;43236;47.208;7.518;2022-08-19T02:17:42;24.02;;;14.20;;
38940;SDS011;43236;47.208;7.518;2022-08-19T02:20:29;23.65;;;15.07;;
38940;SDS011;43236;47.208;7.518;2022-08-19T02:23:17;23.90;;;14.80;;
38940;SDS011;43236;47.208;7.518;2022-08-19T02:26:04;23.83;;;14.38;;
38940;SDS011;43236;47.208;7.518;2022-08-19T02:28:52;24.85;;;14.55;;
38940;SDS011;43236;47.208;7.518;2022-08-19T02:31:41;24.65;;;15.52;;
38940;SDS011;43236;47.208;7.518;2022-08-19T02:34:28;23.92;;;13.23;;
38940;SDS011;43236;47.208;7.518;2022-08-19T02:37:15;21.85;;;13.57;;
38940;SDS011;43236;47.208;7.518;2022-08-19T02:40:16;22.25;;;13.95;;
38940;SDS011;43236;47.208;7.518;2022-08-19T02:43:03;24.98;;;14.40;;
38940;SDS011;43236;47.208;7.518;2022-08-19T02:45:53;24.75;;;13.90;;
38940;SDS011;43236;47.208;7.518;2022-08-19T02:48:42;23.20;;;14.63;;
38940;SDS011;43236;47.208;7.518;2022-08-19T02:51:33;23.92;;;14.52;;
38940;SDS011;43236;47.208;7.518;2022-08-19T02:54:22;22.35;;;13.77;;
38940;SDS011;43236;47.208;7.518;2022-08-19T02:57:09;22.65;;;13.75;;
38940;SDS011;43236;47.208;7.518;2022-08-19T02:59:57;23.17;;;13.65;;
38940;SDS011;43236;47.208;7.518;2022-08-19T03:02:44;23.48;;;14.13;;
38940;SDS011;43236;47.208;7.518;2022-08-19T03:05:33;25.27;;;13.65;;
38940;SDS011;43236;47.208;7.518;2022-08-19T03:08:20;22.40;;;14.00;;
38940;SDS011;43236;47.208;7.518;2022-08-19T03:11:12;20.20;;;12.55;;
38940;SDS011;43236;47.208;7.518;2022-08-19T03:14:00;21.88;;;13.07;;
38940;SDS011;43236;47.208;7.518;2022-08-19T03:16:50;21.25;;;12.55;;
38940;SDS011;43236;47.208;7.518;2022-08-19T03:19:38;20.60;;;13.40;;
38940;SDS011;43236;47.208;7.518;2022-08-19T03:22:27;23.92;;;13.88;;
38940;SDS011;43236;47.208;7.518;2022-08-19T03:25:15;23.35;;;14.38;;
38940;SDS011;43236;47.208;7.518;2022-08-19T03:28:02;23.42;;;13.82;;
38940;SDS011;43236;47.208;7.518;2022-08-19T03:30:56;28.33;;;15.43;;
38940;SDS011;43236;47.208;7.518;2022-08-19T03:33:45;21.30;;;13.50;;
38940;SDS011;43236;47.208;7.518;2022-08-19T03:36:32;22.17;;;13.65;;
38940;SDS011;43236;47.208;7.518;2022-08-19T03:39:21;27.40;;;14.13;;
38940;SDS011;43236;47.208;7.518;2022-08-19T03:42:09;22.15;;;13.98;;
38940;SDS011;43236;47.208;7.518;2022-08-19T03:44:56;21.48;;;13.50;;
38940;SDS011;43236;47.208;7.518;2022-08-19T03:47:44;21.90;;;12.85;;
38940;SDS011;43236;47.208;7.518;2022-08-19T03:50:31;23.88;;;13.63;;
38940;SDS011;43236;47.208;7.518;2022-08-19T03:53:18;22.10;;;13.95;;
38940;SDS011;43236;47.208;7.518;2022-08-19T03:56:07;23.33;;;13.05;;
38940;SDS011;43236;47.208;7.518;2022-08-19T03:58:55;20.63;;;12.50;;
38940;SDS011;43236;47.208;7.518;2022-08-19T04:01:44;20.83;;;12.10;;
38940;SDS011;43236;47.208;7.518;2022-08-19T04:04:32;22.95;;;12.57;;
38940;SDS011;43236;47.208;7.518;2022-08-19T04:07:19;18.70;;;11.68;;
38940;SDS011;43236;47.208;7.518;2022-08-19T04:10:06;20.73;;;11.40;;
38940;SDS011;43236;47.208;7.518;2022-08-19T04:12:56;20.90;;;11.82;;
38940;SDS011;43236;47.208;7.518;2022-08-19T04:15:43;19.13;;;12.00;;
38940;SDS011;43236;47.208;7.518;2022-08-19T04:18:31;19.65;;;10.98;;
38940;SDS011;43236;47.208;7.518;2022-08-19T04:21:20;19.85;;;12.05;;
38940;SDS011;43236;47.208;7.518;2022-08-19T04:24:09;17.27;;;11.20;;
38940;SDS011;43236;47.208;7.518;2022-08-19T04:26:58;18.27;;;10.52;;
38940;SDS011;43236;47.208;7.518;2022-08-19T04:29:47;18.20;;;9.10;;
38940;SDS011;43236;47.208;7.518;2022-08-19T04:32:34;18.25;;;8.35;;
38940;SDS011;43236;47.208;7.518;2022-08-19T04:35:21;14.15;;;8.30;;
38940;SDS011;43236;47.208;7.518;2022-08-19T04:38:09;13.48;;;7.78;;
38940;SDS011;43236;47.208;7.518;2022-08-19T04:40:57;14.80;;;7.10;;
38940;SDS011;43236;47.208;7.518;2022-08-19T04:46:50;11.38;;;7.13;;
38940;SDS011;43236;47.208;7.518;2022-08-19T04:49:37;13.52;;;7.20;;
38940;SDS011;43236;47.208;7.518;2022-08-19T04:52:25;11.80;;;7.07;;
38940;SDS011;43236;47.208;7.518;2022-08-19T04:55:12;14.30;;;7.80;;
38940;SDS011;43236;47.208;7.518;2022-08-19T04:57:59;11.40;;;7.80;;
38940;SDS011;43236;47.208;7.518;2022-08-19T05:00:47;12.88;;;7.63;;
38940;SDS011;43236;47.208;7.518;2022-08-19T05:03:36;13.73;;;7.97;;
38940;SDS011;43236;47.208;7.518;2022-08-19T05:06:23;12.35;;;7.68;;
38940;SDS011;43236;47.208;7.518;2022-08-19T05:09:11;18.15;;;8.07;;
38940;SDS011;43236;47.208;7.518;2022-08-19T05:11:58;16.13;;;7.85;;
38940;SDS011;43236;47.208;7.518;2022-08-19T05:14:45;11.77;;;6.80;;
38940;SDS011;43236;47.208;7.518;2022-08-19T05:17:33;11.50;;;6.97;;
38940;SDS011;43236;47.208;7.518;2022-08-19T05:20:21;10.93;;;7.32;;
38940;SDS011;43236;47.208;7.518;2022-08-19T05:23:26;11.45;;;7.43;;
38940;SDS011;43236;47.208;7.518;2022-08-19T05:26:16;12.35;;;6.97;;
38940;SDS011;43236;47.208;7.518;2022-08-19T05:29:03;15.35;;;6.97;;
38940;SDS011;43236;47.208;7.518;2022-08-19T05:31:52;11.90;;;6.95;;
38940;SDS011;43236;47.208;7.518;2022-08-19T05:34:40;10.90;;;7.00;;
38940;SDS011;43236;47.208;7.518;2022-08-19T05:37:28;11.98;;;6.88;;
38940;SDS011;43236;47.208;7.518;2022-08-19T05:40:17;15.70;;;6.75;;
38940;SDS011;43236;47.208;7.518;2022-08-19T05:43:05;15.10;;;6.88;;
38940;SDS011;43236;47.208;7.518;2022-08-19T05:45:53;9.57;;;6.15;;
38940;SDS011;43236;47.208;7.518;2022-08-19T05:48:42;12.48;;;6.60;;
38940;SDS011;43236;47.208;7.518;2022-08-19T05:51:29;12.38;;;5.85;;
38940;SDS011;43236;47.208;7.518;2022-08-19T05:54:18;9.10;;;6.15;;
38940;SDS011;43236;47.208;7.518;2022-08-19T05:57:05;11.48;;;6.60;;
38940;SDS011;43236;47.208;7.518;2022-08-19T05:59:52;11.43;;;6.38;;
38940;SDS011;43236;47.208;7.518;2022-08-19T06:02:40;9.38;;;6.22;;
38940;SDS011;43236;47.208;7.518;2022-08-19T06:05:27;11.43;;;6.43;;
38940;SDS011;43236;47.208;7.518;2022-08-19T06:08:14;11.20;;;7.07;;
38940;SDS011;43236;47.208;7.518;2022-08-19T06:11:15;9.95;;;6.80;;
38940;SDS011;43236;47.208;7.518;2022-08-19T06:14:05;15.57;;;6.72;;
38940;SDS011;43236;47.208;7.518;2022-08-19T06:16:55;11.32;;;6.28;;
38940;SDS011;43236;47.208;7.518;2022-08-19T06:19:43;12.02;;;6.65;;
38940;SDS011;43236;47.208;7.518;2022-08-19T06:22:30;11.73;;;6.10;;
38940;SDS011;43236;47.208;7.518;2022-08-19T06:25:17;11.40;;;6.80;;
38940;SDS011;43236;47.208;7.518;2022-08-19T06:28:06;11.15;;;6.97;;
38940;SDS011;43236;47.208;7.518;2022-08-19T06:30:53;13.13;;;7.00;;
38940;SDS011;43236;47.208;7.518;2022-08-19T06:33:40;11.23;;;6.70;;
38940;SDS011;43236;47.208;7.518;2022-08-19T06:36:28;12.00;;;6.88;;
38940;SDS011;43236;47.208;7.518;2022-08-19T06:39:20;11.98;;;7.20;;
38940;SDS011;43236;47.208;7.518;2022-08-19T06:42:10;11.25;;;6.80;;
38940;SDS011;43236;47.208;7.518;2022-08-19T06:45:02;11.10;;;6.80;;
38940;SDS011;43236;47.208;7.518;2022-08-19T06:47:50;13.27;;;6.68;;
38940;SDS011;43236;47.208;7.518;2022-08-19T06:50:39;12.82;;;7.20;;
38940;SDS011;43236;47.208;7.518;2022-08-19T06:53:26;11.85;;;7.03;;
38940;SDS011;43236;47.208;7.518;2022-08-19T06:56:15;12.48;;;6.70;;
38940;SDS011;43236;47.208;7.518;2022-08-19T06:59:05;10.10;;;6.85;;
38940;SDS011;43236;47.208;7.518;2022-08-19T07:01:55;15.75;;;7.68;;
38940;SDS011;43236;47.208;7.518;2022-08-19T07:04:44;11.82;;;6.72;;
38940;SDS011;43236;47.208;7.518;2022-08-19T07:07:31;12.27;;;7.30;;
38940;SDS011;43236;47.208;7.518;2022-08-19T07:10:18;13.48;;;7.22;;
38940;SDS011;43236;47.208;7.518;2022-08-19T07:13:07;14.60;;;7.43;;
38940;SDS011;43236;47.208;7.518;2022-08-19T07:15:54;11.18;;;7.30;;
38940;SDS011;43236;47.208;7.518;2022-08-19T07:18:43;12.70;;;7.13;;
38940;SDS011;43236;47.208;7.518;2022-08-19T07:21:33;10.45;;;6.63;;
38940;SDS011;43236;47.208;7.518;2022-08-19T07:24:24;14.40;;;7.25;;
38940;SDS011;43236;47.208;7.518;2022-08-19T07:27:13;14.27;;;7.68;;
38940;SDS011;43236;47.208;7.518;2022-08-19T07:30:02;11.73;;;7.20;;
38940;SDS011;43236;47.208;7.518;2022-08-19T07:32:50;12.35;;;7.78;;
38940;SDS011;43236;47.208;7.518;2022-08-19T07:35:39;11.52;;;6.88;;
38940;SDS011;43236;47.208;7.518;2022-08-19T07:38:27;15.80;;;8.02;;
38940;SDS011;43236;47.208;7.518;2022-08-19T07:41:15;15.23;;;7.32;;
38940;SDS011;43236;47.208;7.518;2022-08-19T07:44:05;12.43;;;8.13;;
38940;SDS011;43236;47.208;7.518;2022-08-19T07:46:55;13.48;;;7.65;;
38940;SDS011;43236;47.208;7.518;2022-08-19T07:49:43;12.50;;;7.88;;
38940;SDS011;43236;47.208;7.518;2022-08-19T07:52:31;10.63;;;7.00;;
38940;SDS011;43236;47.208;7.518;2022-08-19T07:55:20;11.73;;;7.53;;
38940;SDS011;43236;47.208;7.518;2022-08-19T07:58:13;11.02;;;7.40;;
38940;SDS011;43236;47.208;7.518;2022-08-19T08:01:02;12.88;;;7.82;;
38940;SDS011;43236;47.208;7.518;2022-08-19T08:03:51;13.07;;;8.00;;
38940;SDS011;43236;47.208;7.518;2022-08-19T08:07:00;11.63;;;7.25;;
38940;SDS011;43236;47.208;7.518;2022-08-19T08:10:06;13.85;;;8.10;;
38940;SDS011;43236;47.208;7.518;2022-08-19T08:12:54;12.90;;;8.00;;
38940;SDS011;43236;47.208;7.518;2022-08-19T08:15:41;12.23;;;7.20;;
38940;SDS011;43236;47.208;7.518;2022-08-19T08:18:29;16.98;;;7.85;;
38940;SDS011;43236;47.208;7.518;2022-08-19T08:21:16;11.35;;;7.10;;
38940;SDS011;43236;47.208;7.518;2022-08-19T08:24:04;13.75;;;7.07;;
38940;SDS011;43236;47.208;7.518;2022-08-19T08:26:52;12.40;;;7.25;;
38940;SDS011;43236;47.208;7.518;2022-08-19T08:29:39;10.77;;;6.68;;
38940;SDS011;43236;47.208;7.518;2022-08-19T08:32:26;13.00;;;6.18;;
38940;SDS011;43236;47.208;7.518;2022-08-19T08:35:14;14.10;;;6.80;;
38940;SDS011;43236;47.208;7.518;2022-08-19T08:38:02;10.20;;;6.32;;
38940;SDS011;43236;47.208;7.518;2022-08-19T08:40:50;10.73;;;6.68;;
38940;SDS011;43236;47.208;7.518;2022-08-19T08:43:44;10.90;;;6.25;;
38940;SDS011;43236;47.208;7.518;2022-08-19T08:46:34;11.32;;;6.45;;
38940;SDS011;43236;47.208;7.518;2022-08-19T08:49:29;11.30;;;6.22;;
38940;SDS011;43236;47.208;7.518;2022-08-19T08:52:23;9.38;;;5.78;;
38940;SDS011;43236;47.208;7.518;2022-08-19T08:55:14;9.20;;;5.97;;
38940;SDS011;43236;47.208;7.518;2022-08-19T08:58:05;8.68;;;4.93;;
38940;SDS011;43236;47.208;7.518;2022-08-19T09:01:00;10.55;;;5.60;;
38940;SDS011;43236;47.208;7.518;2022-08-19T09:03:47;7.93;;;5.38;;
38940;SDS011;43236;47.208;7.518;2022-08-19T09:06:36;9.65;;;5.60;;
38940;SDS011;43236;47.208;7.518;2022-08-19T09:09:30;9.40;;;5.03;;
38940;SDS011;43236;47.208;7.518;2022-08-19T09:12:21;10.43;;;5.35;;
38940;SDS011;43236;47.208;7.518;2022-08-19T09:15:21;9.18;;;5.40;;
38940;SDS011;43236;47.208;7.518;2022-08-19T09:18:15;10.40;;;5.40;;
38940;SDS011;43236;47.208;7.518;2022-08-19T09:21:02;8.43;;;4.80;;
38940;SDS011;43236;47.208;7.518;2022-08-19T09:23:49;8.93;;;5.32;;
38940;SDS011;43236;47.208;7.518;2022-08-19T09:26:36;10.68;;;5.38;;
38940;SDS011;43236;47.208;7.518;2022-08-19T09:29:24;9.23;;;5.18;;
38940;SDS011;43236;47.208;7.518;2022-08-19T09:32:11;8.07;;;5.18;;
38940;SDS011;43236;47.208;7.518;2022-08-19T09:34:59;10.40;;;5.57;;
38940;SDS011;43236;47.208;7.518;2022-08-19T09:37:46;8.18;;;5.60;;
38940;SDS011;43236;47.208;7.518;2022-08-19T09:40:34;8.50;;;5.47;;
38940;SDS011;43236;47.208;7.518;2022-08-19T09:43:21;8.00;;;5.35;;
38940;SDS011;43236;47.208;7.518;2022-08-19T09:46:08;12.77;;;5.65;;
38940;SDS011;43236;47.208;7.518;2022-08-19T09:48:57;10.02;;;5.63;;
38940;SDS011;43236;47.208;7.518;2022-08-19T09:51:48;9.55;;;5.75;;
38940;SDS011;43236;47.208;7.518;2022-08-19T09:54:36;8.75;;;5.40;;
38940;SDS011;43236;47.208;7.518;2022-08-19T09:57:23;8.38;;;5.60;;
38940;SDS011;43236;47.208;7.518;2022-08-19T10:00:10;8.70;;;5.78;;
38940;SDS011;43236;47.208;7.518;2022-08-19T10:02:58;8.23;;;5.60;;
38940;SDS011;43236;47.208;7.518;2022-08-19T10:05:45;9.90;;;5.68;;
38940;SDS011;43236;47.208;7.518;2022-08-19T10:08:36;9.48;;;5.68;;
38940;SDS011;43236;47.208;7.518;2022-08-19T10:11:25;8.32;;;5.60;;
38940;SDS011;43236;47.208;7.518;2022-08-19T10:14:13;9.07;;;5.90;;
38940;SDS011;43236;47.208;7.518;2022-08-19T10:17:02;11.27;;;6.60;;
38940;SDS011;43236;47.208;7.518;2022-08-19T10:19:49;12.57;;;6.00;;
38940;SDS011;43236;47.208;7.518;2022-08-19T10:22:36;8.80;;;5.65;;
38940;SDS011;43236;47.208;7.518;2022-08-19T10:25:25;11.93;;;6.03;;
38940;SDS011;43236;47.208;7.518;2022-08-19T10:28:12;10.77;;;5.85;;
38940;SDS011;43236;47.208;7.518;2022-08-19T10:31:03;14.65;;;6.80;;
38940;SDS011;43236;47.208;7.518;2022-08-19T10:33:51;9.68;;;5.72;;
38940;SDS011;43236;47.208;7.518;2022-08-19T10:36:43;10.88;;;6.57;;
38940;SDS011;43236;47.208;7.518;2022-08-19T10:39:31;10.85;;;5.97;;
38940;SDS011;43236;47.208;7.518;2022-08-19T10:42:21;10.73;;;6.68;;
38940;SDS011;43236;47.208;7.518;2022-08-19T10:45:09;10.63;;;7.05;;
38940;SDS011;43236;47.208;7.518;2022-08-19T10:47:57;11.20;;;6.22;;
38940;SDS011;43236;47.208;7.518;2022-08-19T10:50:44;10.48;;;6.80;;
38940;SDS011;43236;47.208;7.518;2022-08-19T10:53:49;10.18;;;6.10;;
38940;SDS011;43236;47.208;7.518;2022-08-19T10:56:36;12.05;;;6.75;;
38940;SDS011;43236;47.208;7.518;2022-08-19T10:59:39;10.50;;;6.25;;
38940;SDS011;43236;47.208;7.518;2022-08-19T11:02:26;10.25;;;6.03;;
38940;SDS011;43236;47.208;7.518;2022-08-19T11:05:14;11.23;;;6.57;;
38940;SDS011;43236;47.208;7.518;2022-08-19T11:08:02;13.40;;;7.22;;
38940;SDS011;43236;47.208;7.518;2022-08-19T11:10:51;10.55;;;6.72;;
38940;SDS011;43236;47.208;7.518;2022-08-19T11:13:46;11.98;;;7.13;;
38940;SDS011;43236;47.208;7.518;2022-08-19T11:16:37;10.50;;;6.82;;
38940;SDS011;43236;47.208;7.518;2022-08-19T11:19:25;18.00;;;6.90;;
38940;SDS011;43236;47.208;7.518;2022-08-19T11:22:12;11.65;;;7.07;;
38940;SDS011;43236;47.208;7.518;2022-08-19T11:24:59;12.20;;;7.57;;
38940;SDS011;43236;47.208;7.518;2022-08-19T11:27:47;13.45;;;7.47;;
38940;SDS011;43236;47.208;7.518;2022-08-19T11:30:37;14.93;;;7.43;;
38940;SDS011;43236;47.208;7.518;2022-08-19T11:33:26;12.20;;;7.03;;
38940;SDS011;43236;47.208;7.518;2022-08-19T11:36:13;15.13;;;7.90;;
38940;SDS011;43236;47.208;7.518;2022-08-19T11:39:02;13.02;;;7.55;;
38940;SDS011;43236;47.208;7.518;2022-08-19T11:41:50;14.68;;;7.65;;
38940;SDS011;43236;47.208;7.518;2022-08-19T11:44:37;13.73;;;7.63;;
38940;SDS011;43236;47.208;7.518;2022-08-19T11:47:24;16.13;;;7.90;;
38940;SDS011;43236;47.208;7.518;2022-08-19T11:50:13;12.50;;;7.55;;
38940;SDS011;43236;47.208;7.518;2022-08-19T11:53:00;12.43;;;8.15;;
38940;SDS011;43236;47.208;7.518;2022-08-19T11:55:47;13.88;;;8.30;;
38940;SDS011;43236;47.208;7.518;2022-08-19T11:58:35;12.43;;;8.02;;
38940;SDS011;43236;47.208;7.518;2022-08-19T12:01:23;13.50;;;7.88;;
38940;SDS011;43236;47.208;7.518;2022-08-19T12:04:12;12.05;;;7.68;;
38940;SDS011;43236;47.208;7.518;2022-08-19T12:07:01;13.25;;;7.97;;
38940;SDS011;43236;47.208;7.518;2022-08-19T12:09:48;15.38;;;8.38;;
38940;SDS011;43236;47.208;7.518;2022-08-19T12:12:36;14.27;;;8.73;;
38940;SDS011;43236;47.208;7.518;2022-08-19T12:15:25;18.17;;;8.77;;
38940;SDS011;43236;47.208;7.518;2022-08-19T12:18:14;15.20;;;9.05;;
38940;SDS011;43236;47.208;7.518;2022-08-19T12:21:01;13.57;;;8.50;;
38940;SDS011;43236;47.208;7.518;2022-08-19T12:23:50;14.73;;;9.43;;
38940;SDS011;43236;47.208;7.518;2022-08-19T12:26:38;17.38;;;9.45;;
38940;SDS011;43236;47.208;7.518;2022-08-19T12:29:25;14.93;;;9.45;;
38940;SDS011;43236;47.208;7.518;2022-08-19T12:32:13;17.13;;;9.57;;
38940;SDS011;43236;47.208;7.518;2022-08-19T12:35:02;15.60;;;9.93;;
38940;SDS011;43236;47.208;7.518;2022-08-19T12:37:49;16.38;;;10.32;;
38940;SDS011;43236;47.208;7.518;2022-08-19T12:40:38;17.80;;;9.95;;
38940;SDS011;43236;47.208;7.518;2022-08-19T12:43:26;17.20;;;10.45;;
38940;SDS011;43236;47.208;7.518;2022-08-19T12:46:15;19.23;;;11.27;;
38940;SDS011;43236;47.208;7.518;2022-08-19T12:49:03;17.60;;;10.75;;
38940;SDS011;43236;47.208;7.518;2022-08-19T12:51:50;17.30;;;10.50;;
38940;SDS011;43236;47.208;7.518;2022-08-19T12:54:38;17.45;;;10.48;;
38940;SDS011;43236;47.208;7.518;2022-08-19T12:57:27;18.88;;;10.68;;
38940;SDS011;43236;47.208;7.518;2022-08-19T13:00:20;18.65;;;10.82;;
38940;SDS011;43236;47.208;7.518;2022-08-19T13:03:08;17.27;;;10.75;;
38940;SDS011;43236;47.208;7.518;2022-08-19T13:05:55;17.13;;;9.93;;
38940;SDS011;43236;47.208;7.518;2022-08-19T13:08:42;15.90;;;9.88;;
38940;SDS011;43236;47.208;7.518;2022-08-19T13:11:29;17.13;;;10.90;;
38940;SDS011;43236;47.208;7.518;2022-08-19T13:14:19;15.38;;;10.38;;
38940;SDS011;43236;47.208;7.518;2022-08-19T13:17:06;18.00;;;11.25;;
38940;SDS011;43236;47.208;7.518;2022-08-19T13:19:54;18.98;;;10.80;;
38940;SDS011;43236;47.208;7.518;2022-08-19T13:22:41;17.13;;;10.60;;
38940;SDS011;43236;47.208;7.518;2022-08-19T13:25:29;16.52;;;11.10;;
38940;SDS011;43236;47.208;7.518;2022-08-19T13:28:17;17.60;;;10.73;;
38940;SDS011;43236;47.208;7.518;2022-08-19T13:31:05;18.40;;;12.20;;
38940;SDS011;43236;47.208;7.518;2022-08-19T13:34:10;17.23;;;11.23;;
38940;SDS011;43236;47.208;7.518;2022-08-19T13:36:57;19.35;;;11.82;;
38940;SDS011;43236;47.208;7.518;2022-08-19T13:39:45;20.27;;;11.82;;
38940;SDS011;43236;47.208;7.518;2022-08-19T13:42:34;18.75;;;11.52;;
38940;SDS011;43236;47.208;7.518;2022-08-19T13:45:22;23.80;;;11.88;;
38940;SDS011;43236;47.208;7.518;2022-08-19T13:48:12;18.85;;;11.48;;
38940;SDS011;43236;47.208;7.518;2022-08-19T13:50:59;20.10;;;11.75;;
38940;SDS011;43236;47.208;7.518;2022-08-19T13:53:46;19.95;;;11.43;;
38940;SDS011;43236;47.208;7.518;2022-08-19T13:56:33;17.85;;;11.32;;
38940;SDS011;43236;47.208;7.518;2022-08-19T13:59:21;16.20;;;10.93;;
38940;SDS011;43236;47.208;7.518;2022-08-19T14:02:08;17.52;;;10.85;;
38940;SDS011;43236;47.208;7.518;2022-08-19T14:04:57;20.08;;;12.40;;
38940;SDS011;43236;47.208;7.518;2022-08-19T14:07:44;18.10;;;11.13;;
38940;SDS011;43236;47.208;7.518;2022-08-19T14:10:32;20.70;;;12.95;;
38940;SDS011;43236;47.208;7.518;2022-08-19T14:13:20;21.70;;;11.80;;
38940;SDS011;43236;47.208;7.518;2022-08-19T14:16:08;19.75;;;12.77;;
38940;SDS011;43236;47.208;7.518;2022-08-19T14:18:57;22.75;;;12.80;;
38940;SDS011;43236;47.208;7.518;2022-08-19T14:21:45;20.67;;;12.15;;
38940;SDS011;43236;47.208;7.518;2022-08-19T14:24:33;17.73;;;11.32;;
38940;SDS011;43236;47.208;7.518;2022-08-19T14:27:20;16.67;;;10.48;;
38940;SDS011;43236;47.208;7.518;2022-08-19T14:30:11;17.02;;;11.23;;
38940;SDS011;43236;47.208;7.518;2022-08-19T14:33:01;17.52;;;11.15;;
38940;SDS011;43236;47.208;7.518;2022-08-19T14:35:50;20.60;;;11.15;;
38940;SDS011;43236;47.208;7.518;2022-08-19T14:38:38;23.73;;;11.25;;
38940;SDS011;43236;47.208;7.518;2022-08-19T14:41:26;20.60;;;11.23;;
38940;SDS011;43236;47.208;7.518;2022-08-19T14:44:13;18.70;;;10.90;;
38940;SDS011;43236;47.208;7.518;2022-08-19T14:47:00;19.63;;;12.10;;
38940;SDS011;43236;47.208;7.518;2022-08-19T14:49:48;22.70;;;12.02;;
38940;SDS011;43236;47.208;7.518;2022-08-19T14:52:35;20.30;;;12.15;;
38940;SDS011;43236;47.208;7.518;2022-08-19T14:55:23;21.38;;;12.32;;
38940;SDS011;43236;47.208;7.518;2022-08-19T14:58:10;20.55;;;11.95;;
38940;SDS011;43236;47.208;7.518;2022-08-19T15:00:58;19.23;;;11.95;;
38940;SDS011;43236;47.208;7.518;2022-08-19T15:03:45;20.80;;;12.63;;
38940;SDS011;43236;47.208;7.518;2022-08-19T15:06:34;20.50;;;12.23;;
38940;SDS011;43236;47.208;7.518;2022-08-19T15:09:21;21.58;;;12.75;;
38940;SDS011;43236;47.208;7.518;2022-08-19T15:12:09;21.75;;;12.80;;
38940;SDS011;43236;47.208;7.518;2022-08-19T15:14:56;23.77;;;12.27;;
38940;SDS011;43236;47.208;7.518;2022-08-19T15:17:43;23.95;;;13.18;;
38940;SDS011;43236;47.208;7.518;2022-08-19T15:20:31;22.35;;;13.82;;
38940;SDS011;43236;47.208;7.518;2022-08-19T15:23:19;21.05;;;12.80;;
38940;SDS011;43236;47.208;7.518;2022-08-19T15:26:07;21.00;;;13.13;;
38940;SDS011;43236;47.208;7.518;2022-08-19T15:28:56;20.23;;;12.63;;
38940;SDS011;43236;47.208;7.518;2022-08-19T15:31:44;21.83;;;12.88;;
38940;SDS011;43236;47.208;7.518;2022-08-19T15:34:31;22.25;;;13.48;;
38940;SDS011;43236;47.208;7.518;2022-08-19T15:37:19;24.13;;;13.85;;
38940;SDS011;43236;47.208;7.518;2022-08-19T15:40:08;23.20;;;13.32;;
38940;SDS011;43236;47.208;7.518;2022-08-19T15:42:56;20.65;;;12.90;;
38940;SDS011;43236;47.208;7.518;2022-08-19T15:45:44;20.45;;;12.77;;
38940;SDS011;43236;47.208;7.518;2022-08-19T15:48:32;20.75;;;12.90;;
38940;SDS011;43236;47.208;7.518;2022-08-19T15:51:19;22.65;;;13.48;;
38940;SDS011;43236;47.208;7.518;2022-08-19T15:54:08;23.33;;;14.13;;
38940;SDS011;43236;47.208;7.518;2022-08-19T15:56:56;25.35;;;14.15;;
38940;SDS011;43236;47.208;7.518;2022-08-19T16:00:15;22.33;;;13.68;;
38940;SDS011;43236;47.208;7.518;2022-08-19T16:06:25;23.83;;;13.55;;
38940;SDS011;43236;47.208;7.518;2022-08-19T16:09:14;21.77;;;13.35;;
38940;SDS011;43236;47.208;7.518;2022-08-19T16:12:03;19.67;;;13.40;;
38940;SDS011;43236;47.208;7.518;2022-08-19T16:14:51;23.63;;;13.20;;
38940;SDS011;43236;47.208;7.518;2022-08-19T16:17:38;23.35;;;13.35;;
38940;SDS011;43236;47.208;7.518;2022-08-19T16:20:27;22.65;;;13.35;;
38940;SDS011;43236;47.208;7.518;2022-08-19T16:23:15;24.80;;;13.35;;
38940;SDS011;43236;47.208;7.518;2022-08-19T16:26:02;23.40;;;13.68;;
38940;SDS011;43236;47.208;7.518;2022-08-19T16:28:49;20.45;;;12.15;;
38940;SDS011;43236;47.208;7.518;2022-08-19T16:31:37;21.80;;;12.80;;
38940;SDS011;43236;47.208;7.518;2022-08-19T16:34:24;21.40;;;13.73;;
38940;SDS011;43236;47.208;7.518;2022-08-19T16:37:13;21.88;;;14.55;;
38940;SDS011;43236;47.208;7.518;2022-08-19T16:40:00;26.85;;;14.25;;